createdAt,value
2023-12-12T00:00:47.777Z,4.25
2023-12-12T00:03:39.187Z,4.26
2023-12-12T00:06:08.512Z,4.25
2023-12-12T00:08:35.571Z,4.23
2023-12-12T00:11:17.867Z,4.23
2023-12-12T00:13:50.624Z,4.22
2023-12-12T00:16:35.924Z,4.22
2023-12-12T00:19:08.603Z,4.22
2023-12-12T00:21:55.453Z,4.23
2023-12-12T00:24:27.652Z,4.22
2023-12-12T00:26:54.768Z,4.22
2023-12-12T00:29:22.518Z,4.21
2023-12-12T00:31:50.122Z,4.22
2023-12-12T00:34:23.045Z,4.22
2023-12-12T00:36:50.258Z,4.21
2023-12-12T00:39:19.691Z,4.22
2023-12-12T00:41:49.138Z,4.23
2023-12-12T00:44:38.234Z,4.22
2023-12-12T00:47:08.589Z,4.22
2023-12-12T00:49:35.556Z,4.22
2023-12-12T00:52:23.410Z,4.24
2023-12-12T00:55:05.874Z,4.27
2023-12-12T00:57:52.920Z,4.28
2023-12-12T01:00:23.658Z,4.29
2023-12-12T01:03:10.887Z,4.29
2023-12-12T01:05:57.690Z,4.28
2023-12-12T01:08:46.014Z,4.27
2023-12-12T01:11:13.894Z,4.27
2023-12-12T01:14:21.167Z,4.27
2023-12-12T01:17:10.256Z,4.26
2023-12-12T01:19:46.023Z,4.26
2023-12-12T01:22:32.892Z,4.25
2023-12-12T01:25:04.770Z,4.24
2023-12-12T01:27:35.176Z,4.23
2023-12-12T01:30:06.936Z,4.23
2023-12-12T01:32:35.793Z,4.21
2023-12-12T01:35:05.534Z,4.21
2023-12-12T01:37:46.053Z,4.21
2023-12-12T01:40:14.175Z,4.19
2023-12-12T01:42:50.134Z,4.17
2023-12-12T01:45:20.005Z,4.17
2023-12-12T01:47:48.548Z,4.17
2023-12-12T01:50:35.628Z,4.16
2023-12-12T01:53:45.245Z,4.16
2023-12-12T01:56:33.459Z,4.15
2023-12-12T01:59:02.190Z,4.15
2023-12-12T02:02:10.602Z,4.13
2023-12-12T02:04:57.851Z,4.13
2023-12-12T02:07:31.102Z,4.13
2023-12-12T02:10:04.024Z,4.13
2023-12-12T02:12:37.351Z,4.13
2023-12-12T02:15:07.093Z,4.14
2023-12-12T02:17:35.852Z,4.14
2023-12-12T02:20:16.247Z,4.13
2023-12-12T02:22:44.521Z,4.13
2023-12-12T02:25:23.655Z,4.14
2023-12-12T02:28:01.245Z,4.15
2023-12-12T02:30:31.234Z,4.16
2023-12-12T02:33:00.382Z,4.18
2023-12-12T02:35:50.034Z,4.17
2023-12-12T02:38:25.572Z,4.16
2023-12-12T02:40:54.934Z,4.14
2023-12-12T02:43:26.243Z,4.13
2023-12-12T02:46:03.565Z,4.13
2023-12-12T02:48:32.977Z,4.12
2023-12-12T02:50:59.983Z,4.12
2023-12-12T02:53:29.612Z,4.11
2023-12-12T02:55:57.954Z,4.11
2023-12-12T02:58:25.280Z,4.09
2023-12-12T03:01:14.319Z,4.08
2023-12-12T03:04:02.203Z,4.06
2023-12-12T03:06:30.965Z,4.05
2023-12-12T03:08:57.697Z,4.05
2023-12-12T03:11:25.652Z,4.05
2023-12-12T03:13:52.574Z,4.05
2023-12-12T03:16:19.457Z,4.06
2023-12-12T03:18:47.956Z,4.06
2023-12-12T03:21:17.184Z,4.07
2023-12-12T03:23:44.472Z,4.07
2023-12-12T03:26:11.473Z,4.07
2023-12-12T03:28:39.063Z,4.07
2023-12-12T03:31:07.427Z,4.07
2023-12-12T03:33:34.792Z,4.09
2023-12-12T03:36:06.422Z,4.11
2023-12-12T03:38:33.101Z,4.13
2023-12-12T03:40:59.900Z,4.13
2023-12-12T03:43:26.822Z,4.15
2023-12-12T03:45:53.735Z,4.17
2023-12-12T03:48:20.778Z,4.19
2023-12-12T03:51:07.549Z,4.19
2023-12-12T03:53:34.382Z,4.19
2023-12-12T03:56:01.775Z,4.19
2023-12-12T03:58:28.777Z,4.20
2023-12-12T04:00:55.723Z,4.21
2023-12-12T04:03:23.688Z,4.20
2023-12-12T04:05:51.416Z,4.21
2023-12-12T04:08:18.534Z,4.20
2023-12-12T04:10:45.318Z,4.18
2023-12-12T04:13:12.144Z,4.18
2023-12-12T04:15:39.097Z,4.17
2023-12-12T04:18:05.974Z,4.18
2023-12-12T04:20:32.830Z,4.21
2023-12-12T04:22:59.995Z,4.22
2023-12-12T04:25:26.960Z,4.23
2023-12-12T04:27:54.139Z,4.25
2023-12-12T04:30:21.133Z,4.27
2023-12-12T04:32:47.860Z,4.29
2023-12-12T04:35:15.980Z,4.30
2023-12-12T04:37:42.888Z,4.30
2023-12-12T04:40:10.096Z,4.31
2023-12-12T04:42:36.845Z,4.31
2023-12-12T04:45:04.125Z,4.32
2023-12-12T04:47:31.292Z,4.33
2023-12-12T04:49:59.000Z,4.34
2023-12-12T04:52:26.009Z,4.36
2023-12-12T04:54:52.784Z,4.36
2023-12-12T04:57:19.846Z,4.35
2023-12-12T04:59:47.022Z,4.35
2023-12-12T05:02:13.767Z,4.36
2023-12-12T05:04:40.614Z,4.35
2023-12-12T05:07:07.452Z,4.35
2023-12-12T05:09:34.129Z,4.35
2023-12-12T05:12:03.634Z,4.35
2023-12-12T05:14:30.365Z,4.34
2023-12-12T05:17:04.509Z,4.34
2023-12-12T05:19:37.411Z,4.34
2023-12-12T05:22:04.822Z,4.34
2023-12-12T05:24:31.618Z,4.34
2023-12-12T05:26:58.615Z,4.34
2023-12-12T05:29:28.912Z,4.33
2023-12-12T05:31:55.790Z,4.33
2023-12-12T05:34:27.828Z,4.32
2023-12-12T05:36:55.129Z,4.29
2023-12-12T05:39:22.200Z,4.27
2023-12-12T05:41:49.299Z,4.26
2023-12-12T05:44:16.006Z,4.26
2023-12-12T05:46:43.188Z,4.25
2023-12-12T05:49:10.834Z,4.26
2023-12-12T05:51:39.035Z,4.25
2023-12-12T05:54:06.105Z,4.24
2023-12-12T05:56:47.591Z,4.24
2023-12-12T05:59:16.160Z,4.26
2023-12-12T06:01:47.481Z,4.26
2023-12-12T06:04:35.754Z,4.26
2023-12-12T06:07:02.837Z,4.26
2023-12-12T06:09:51.944Z,4.25
2023-12-12T06:12:33.050Z,4.25
2023-12-12T06:15:10.671Z,4.26
2023-12-12T06:17:41.622Z,4.26
2023-12-12T06:20:09.760Z,4.25
2023-12-12T06:22:40.961Z,4.24
2023-12-12T06:25:08.443Z,4.24
2023-12-12T06:27:38.443Z,4.23
2023-12-12T06:30:06.548Z,4.22
2023-12-12T06:32:33.610Z,4.21
2023-12-12T06:35:00.547Z,4.21
2023-12-12T06:37:27.457Z,4.21
2023-12-12T06:39:54.591Z,4.23
2023-12-12T06:42:21.549Z,4.24
2023-12-12T06:44:50.879Z,4.25
2023-12-12T06:47:18.958Z,4.26
2023-12-12T06:49:47.193Z,4.26
2023-12-12T06:52:16.113Z,4.26
2023-12-12T06:54:43.066Z,4.26
2023-12-12T06:57:14.317Z,4.25
2023-12-12T06:59:46.854Z,4.25
2023-12-12T07:02:20.021Z,4.26
2023-12-12T07:04:47.560Z,4.26
2023-12-12T07:07:21.464Z,4.27
2023-12-12T07:09:58.924Z,4.27
2023-12-12T07:12:28.510Z,4.26
2023-12-12T07:14:55.771Z,4.25
2023-12-12T07:38:21.130Z,4.24
2023-12-12T07:40:48.135Z,4.24
2023-12-12T07:43:16.253Z,4.23
2023-12-12T07:45:43.295Z,4.23
2023-12-12T07:48:10.390Z,4.24
2023-12-12T07:50:41.008Z,4.26
2023-12-12T07:53:07.838Z,4.30
2023-12-12T07:55:34.688Z,4.34
2023-12-12T07:58:02.394Z,4.39
2023-12-12T08:00:29.149Z,4.44
2023-12-12T08:02:55.944Z,4.49
2023-12-12T08:05:22.662Z,4.56
2023-12-12T08:07:49.595Z,4.61
2023-12-12T08:10:18.879Z,4.65
2023-12-12T08:12:46.998Z,4.68
2023-12-12T08:15:14.081Z,4.73
2023-12-12T08:17:41.174Z,4.80
2023-12-12T08:20:08.810Z,4.87
2023-12-12T08:22:38.095Z,4.91
2023-12-12T08:25:06.620Z,4.95
2023-12-12T08:27:33.578Z,4.98
2023-12-12T08:30:07.343Z,5.06
2023-12-12T08:32:36.763Z,5.16
2023-12-12T08:35:07.307Z,5.21
2023-12-12T08:37:35.117Z,5.26
2023-12-12T08:40:02.041Z,5.31
2023-12-12T08:42:28.808Z,5.36
2023-12-12T08:44:56.338Z,5.37
2023-12-12T08:47:23.720Z,5.37
2023-12-12T08:49:51.364Z,5.39
2023-12-12T08:52:18.460Z,5.40
2023-12-12T08:54:45.508Z,5.43
2023-12-12T08:57:13.117Z,5.38
2023-12-12T08:59:39.997Z,5.35
2023-12-12T09:02:06.695Z,5.36
2023-12-12T09:04:34.041Z,5.34
2023-12-12T09:07:00.918Z,5.29
2023-12-12T09:09:27.763Z,5.28
2023-12-12T09:11:54.775Z,5.25
2023-12-12T09:14:21.567Z,5.24
2023-12-12T09:16:48.242Z,5.25
2023-12-12T09:19:15.069Z,5.26
2023-12-12T09:21:41.941Z,5.25
2023-12-12T09:24:09.138Z,5.23
2023-12-12T09:26:39.132Z,5.24
2023-12-12T09:29:06.004Z,5.24
2023-12-12T09:31:35.376Z,5.25
2023-12-12T09:34:02.743Z,5.28
2023-12-12T09:36:31.967Z,5.31
2023-12-12T09:38:59.800Z,5.34
2023-12-12T09:41:30.471Z,5.36
2023-12-12T09:43:58.158Z,5.43
2023-12-12T09:46:25.786Z,5.44
2023-12-12T09:48:55.070Z,5.49
2023-12-12T09:51:24.723Z,5.57
2023-12-12T09:53:55.008Z,5.67
2023-12-12T09:56:21.771Z,5.70
2023-12-12T09:58:49.500Z,5.74
2023-12-12T10:01:20.526Z,5.75
2023-12-12T10:03:48.245Z,5.78
2023-12-12T10:06:17.649Z,5.85
2023-12-12T10:08:44.504Z,5.88
2023-12-12T10:11:11.118Z,5.90
2023-12-12T10:13:50.901Z,5.91
2023-12-12T10:16:17.822Z,5.95
2023-12-12T10:18:45.786Z,5.91
2023-12-12T10:21:23.065Z,5.86
2023-12-12T10:23:51.820Z,5.82
2023-12-12T10:26:32.295Z,5.79
2023-12-12T10:29:04.151Z,5.76
2023-12-12T10:31:30.758Z,5.75
2023-12-12T10:34:00.652Z,5.74
2023-12-12T10:36:28.089Z,5.70
2023-12-12T10:38:54.906Z,5.65
2023-12-12T10:41:25.536Z,5.60
2023-12-12T10:43:55.797Z,5.53
2023-12-12T10:46:26.056Z,5.49
2023-12-12T10:48:54.880Z,5.47
2023-12-12T10:51:24.552Z,5.42
2023-12-12T10:53:53.272Z,5.39
2023-12-12T10:56:29.734Z,5.36
2023-12-12T10:59:54.980Z,5.36
2023-12-12T11:01:48.027Z,5.37
2023-12-12T11:04:17.923Z,5.36
2023-12-12T11:06:48.226Z,5.35
2023-12-12T11:09:15.682Z,5.33
2023-12-12T11:11:48.161Z,5.33
2023-12-12T11:14:17.190Z,5.33
2023-12-12T11:16:50.753Z,5.35
2023-12-12T11:19:18.695Z,5.39
2023-12-12T11:21:50.619Z,5.42
2023-12-12T11:24:20.096Z,5.43
2023-12-12T11:26:48.412Z,5.43
2023-12-12T11:29:23.821Z,5.43
2023-12-12T11:31:58.326Z,5.44
2023-12-12T11:34:25.377Z,5.44
2023-12-12T11:36:52.978Z,5.45
2023-12-12T11:39:45.310Z,5.46
2023-12-12T11:42:19.918Z,5.46
2023-12-12T11:44:52.500Z,5.48
2023-12-12T11:47:24.436Z,5.50
2023-12-12T11:50:28.823Z,5.52
2023-12-12T11:52:58.330Z,5.55
2023-12-12T11:55:27.208Z,5.60
2023-12-12T11:57:58.681Z,5.66
2023-12-12T12:00:25.370Z,5.73
2023-12-12T12:02:52.068Z,5.78
2023-12-12T12:05:19.478Z,5.81
2023-12-12T12:07:46.688Z,5.79
2023-12-12T12:10:19.578Z,5.78
2023-12-12T12:12:59.036Z,5.75
2023-12-12T12:15:26.848Z,5.73
2023-12-12T12:18:26.575Z,5.70
2023-12-12T12:20:54.045Z,5.68
2023-12-12T12:23:21.365Z,5.67
2023-12-12T12:25:48.362Z,5.67
2023-12-12T12:28:15.216Z,5.66
2023-12-12T12:30:48.268Z,5.67
2023-12-12T12:33:15.262Z,5.66
2023-12-12T12:35:51.720Z,5.66
2023-12-12T12:38:29.206Z,5.66
2023-12-12T12:40:56.061Z,5.67
2023-12-12T12:43:23.088Z,5.69
2023-12-12T12:45:50.820Z,5.72
2023-12-12T12:48:20.566Z,5.77
2023-12-12T12:50:49.867Z,5.79
2023-12-12T12:53:17.151Z,5.80
2023-12-12T12:55:44.657Z,5.81
2023-12-12T12:58:12.762Z,5.81
2023-12-12T13:00:43.188Z,5.82
2023-12-12T13:03:12.872Z,5.81
2023-12-12T13:05:39.765Z,5.79
2023-12-12T13:08:06.564Z,5.79
2023-12-12T13:10:43.082Z,5.76
2023-12-12T13:13:14.922Z,5.74
2023-12-12T13:15:41.713Z,5.73
2023-12-12T13:18:08.428Z,5.71
2023-12-12T13:20:35.393Z,5.68
2023-12-12T13:23:02.147Z,5.66
2023-12-12T13:25:29.736Z,5.62
2023-12-12T13:27:56.486Z,5.58
2023-12-12T13:30:23.231Z,5.54
2023-12-12T13:32:50.084Z,5.48
2023-12-12T13:35:27.134Z,5.45
2023-12-12T13:38:02.220Z,5.40
2023-12-12T13:40:29.068Z,5.37
2023-12-12T13:42:55.868Z,5.33
2023-12-12T13:45:22.600Z,5.33
2023-12-12T13:47:49.575Z,5.32
2023-12-12T13:50:16.466Z,5.29
2023-12-12T13:52:45.515Z,5.26
2023-12-12T13:55:12.222Z,5.23
2023-12-12T13:57:42.966Z,5.20
2023-12-12T14:00:10.938Z,5.16
2023-12-12T14:03:13.896Z,5.12
2023-12-12T14:05:40.890Z,5.10
2023-12-12T14:08:07.791Z,5.08
2023-12-12T14:10:35.905Z,5.04
2023-12-12T14:13:03.791Z,5.02
2023-12-12T14:15:30.524Z,5.00
2023-12-12T14:17:57.536Z,4.97
2023-12-12T14:20:24.337Z,4.93
2023-12-12T14:25:22.249Z,4.83
2023-12-12T14:27:49.143Z,4.79
2023-12-12T14:30:17.770Z,4.76
2023-12-12T14:32:44.732Z,4.72
2023-12-12T14:35:11.647Z,4.68
2023-12-12T14:37:38.653Z,4.63
2023-12-12T14:40:06.556Z,4.59
2023-12-12T14:42:33.939Z,4.55
2023-12-12T14:45:01.302Z,4.52
2023-12-12T14:47:28.191Z,4.48
2023-12-12T14:49:55.020Z,4.45
2023-12-12T14:52:22.313Z,4.40
2023-12-12T14:54:49.040Z,4.36
2023-12-12T14:57:20.581Z,4.33
2023-12-12T14:59:48.988Z,4.31
2023-12-12T15:02:18.552Z,4.31
2023-12-12T15:04:48.432Z,4.29
2023-12-12T15:07:35.715Z,4.27
2023-12-12T15:10:02.905Z,4.24
2023-12-12T15:12:34.889Z,4.23
2023-12-12T15:15:02.906Z,4.21
2023-12-12T15:17:29.757Z,4.20
2023-12-12T15:19:56.667Z,4.18
2023-12-12T15:22:23.723Z,4.17
2023-12-12T15:24:52.957Z,4.16
2023-12-12T15:27:19.656Z,4.17
2023-12-12T15:29:46.376Z,4.17
2023-12-12T15:32:13.127Z,4.16
2023-12-12T15:34:39.999Z,4.14
2023-12-12T15:37:07.058Z,4.13
2023-12-12T15:39:34.567Z,4.11
2023-12-12T15:42:01.471Z,4.10
2023-12-12T15:44:28.247Z,4.09
2023-12-12T15:46:55.613Z,4.08
2023-12-12T15:49:22.542Z,4.06
2023-12-12T15:51:52.229Z,4.05
2023-12-12T15:54:18.965Z,4.05
2023-12-12T15:56:45.775Z,4.05
2023-12-12T15:59:13.980Z,4.04
2023-12-12T16:01:43.222Z,4.03
2023-12-12T16:04:12.589Z,4.02
2023-12-12T16:06:39.471Z,4.01
2023-12-12T16:09:06.216Z,4.01
2023-12-12T16:11:33.306Z,4.01
2023-12-12T16:14:01.370Z,4.01
2023-12-12T16:16:28.124Z,3.99
2023-12-12T16:18:55.115Z,4.00
2023-12-12T16:21:21.970Z,4.00
2023-12-12T16:23:48.837Z,4.01
2023-12-12T16:26:18.059Z,4.01
2023-12-12T16:28:44.888Z,4.01
2023-12-12T16:31:13.269Z,4.01
2023-12-12T16:33:40.100Z,4.02
2023-12-12T16:36:07.209Z,4.02
2023-12-12T16:38:34.015Z,4.01
2023-12-12T16:41:00.827Z,4.00
2023-12-12T16:43:30.946Z,3.98
2023-12-12T16:46:00.160Z,3.98
2023-12-12T16:48:27.249Z,3.96
2023-12-12T16:50:54.332Z,3.95
2023-12-12T16:53:22.560Z,3.95
2023-12-12T16:55:52.103Z,3.93
2023-12-12T16:58:24.680Z,3.93
2023-12-12T17:00:53.014Z,3.92
2023-12-12T17:03:20.501Z,3.92
2023-12-12T17:05:53.335Z,3.91
2023-12-12T17:08:20.129Z,3.90
2023-12-12T17:10:47.244Z,3.89
2023-12-12T17:13:14.609Z,3.88
2023-12-12T17:15:41.274Z,3.88
2023-12-12T17:18:08.088Z,3.88
2023-12-12T17:20:37.486Z,3.87
2023-12-12T17:23:04.458Z,3.87
2023-12-12T17:25:33.349Z,3.88
2023-12-12T17:28:00.101Z,3.87
2023-12-12T17:30:26.925Z,3.86
2023-12-12T17:32:53.611Z,3.86
2023-12-12T17:35:20.319Z,3.84
2023-12-12T17:37:47.130Z,3.83
2023-12-12T17:40:13.988Z,3.82
2023-12-12T17:42:40.907Z,3.80
2023-12-12T17:45:10.276Z,3.79
2023-12-12T17:47:37.992Z,3.77
2023-12-12T17:50:06.238Z,3.76
2023-12-12T17:52:33.092Z,3.74
2023-12-12T17:54:59.817Z,3.73
2023-12-12T17:57:26.685Z,3.72
2023-12-12T17:59:53.645Z,3.71
2023-12-12T18:02:21.331Z,3.70
2023-12-12T18:04:48.272Z,3.69
2023-12-12T18:07:15.238Z,3.69
2023-12-12T18:09:42.107Z,3.69
2023-12-12T18:12:08.972Z,3.70
2023-12-12T18:14:35.653Z,3.69
2023-12-12T18:17:05.304Z,3.70
2023-12-12T18:19:32.104Z,3.70
2023-12-12T18:21:59.371Z,3.70
2023-12-12T18:24:26.777Z,3.70
2023-12-12T18:26:53.542Z,3.69
2023-12-12T18:29:21.463Z,3.68
2023-12-12T18:31:48.905Z,3.68
2023-12-12T18:34:16.246Z,3.67
2023-12-12T18:36:43.192Z,3.67
2023-12-12T18:39:10.172Z,3.67
2023-12-12T18:41:42.433Z,3.67
2023-12-12T18:44:09.462Z,3.67
2023-12-12T18:46:38.587Z,3.67
2023-12-12T18:49:05.865Z,3.67
2023-12-12T18:51:32.991Z,3.67
2023-12-12T18:54:15.376Z,3.67
2023-12-12T18:56:42.196Z,3.67
2023-12-12T18:59:09.063Z,3.66
2023-12-12T19:01:36.021Z,3.66
2023-12-12T19:04:03.188Z,3.65
2023-12-12T19:06:32.910Z,3.64
2023-12-12T19:09:00.675Z,3.64
2023-12-12T19:11:27.430Z,3.63
2023-12-12T19:14:03.316Z,3.63
2023-12-12T19:16:32.709Z,3.63
2023-12-12T19:18:59.854Z,3.62
2023-12-12T19:21:26.781Z,3.61
2023-12-12T19:23:56.731Z,3.60
2023-12-12T19:26:29.046Z,3.59
2023-12-12T19:28:56.415Z,3.58
2023-12-12T19:31:25.527Z,3.56
2023-12-12T19:33:52.908Z,3.54
2023-12-12T19:36:25.505Z,3.53
2023-12-12T19:38:57.006Z,3.52
2023-12-12T19:41:38.612Z,3.53
2023-12-12T19:44:07.214Z,3.52
2023-12-12T19:46:37.582Z,3.50
2023-12-12T19:49:08.117Z,3.48
2023-12-12T19:51:55.198Z,3.46
2023-12-12T19:54:22.432Z,3.43
2023-12-12T19:56:51.470Z,3.39
2023-12-12T19:59:19.486Z,3.34
2023-12-12T20:01:49.080Z,3.29
2023-12-12T20:04:16.371Z,3.22
2023-12-12T20:06:45.606Z,3.14
2023-12-12T20:09:13.917Z,3.07
2023-12-12T20:11:42.945Z,2.99
2023-12-12T20:14:09.970Z,2.90
2023-12-12T20:16:41.617Z,2.81
2023-12-12T20:19:08.640Z,2.72
2023-12-12T20:21:36.037Z,2.64
2023-12-12T20:24:04.230Z,2.57
2023-12-12T20:26:31.054Z,2.51
2023-12-12T20:28:57.983Z,2.48
2023-12-12T20:31:25.110Z,2.46
2023-12-12T20:33:52.071Z,2.48
2023-12-12T20:36:18.855Z,2.53
2023-12-12T20:38:53.997Z,2.57
2023-12-12T20:41:22.985Z,2.59
2023-12-12T20:43:49.908Z,2.62
2023-12-12T20:46:17.822Z,2.63
2023-12-12T20:48:44.901Z,2.64
2023-12-12T20:51:11.718Z,2.65
2023-12-12T20:53:38.693Z,2.68
2023-12-12T20:56:10.533Z,2.72
2023-12-12T20:58:49.234Z,2.77
2023-12-12T21:01:26.237Z,2.80
2023-12-12T21:03:53.139Z,2.80
2023-12-12T21:06:23.272Z,2.80
2023-12-12T21:08:54.731Z,2.77
2023-12-12T21:11:27.279Z,2.75
2023-12-12T21:14:03.725Z,2.70
2023-12-12T21:16:46.932Z,2.64
2023-12-12T21:19:16.518Z,2.60
2023-12-12T21:21:48.510Z,2.57
2023-12-12T21:24:20.517Z,2.53
2023-12-12T21:26:49.184Z,2.47
2023-12-12T21:29:15.870Z,2.43
2023-12-12T21:31:42.898Z,2.39
2023-12-12T21:34:11.113Z,2.34
2023-12-12T21:36:37.717Z,2.29
2023-12-12T21:39:04.398Z,2.27
2023-12-12T21:41:31.376Z,2.22
2023-12-12T21:43:58.508Z,2.16
2023-12-12T21:46:26.301Z,2.10
2023-12-12T21:48:53.106Z,2.04
2023-12-12T21:51:19.968Z,1.96
2023-12-12T21:53:46.640Z,1.88
2023-12-12T21:56:23.940Z,1.80
2023-12-12T21:58:58.411Z,1.72
2023-12-12T22:01:25.531Z,1.66
2023-12-12T22:03:52.416Z,1.60
2023-12-12T22:06:19.167Z,1.54
2023-12-12T22:08:45.709Z,1.50
2023-12-12T22:11:19.818Z,1.49
2023-12-12T22:13:48.076Z,1.46
2023-12-12T22:16:26.183Z,1.44
2023-12-12T22:18:57.720Z,1.42
2023-12-12T22:21:29.206Z,1.39
2023-12-12T22:23:55.912Z,1.37
2023-12-12T22:26:22.583Z,1.38
2023-12-12T22:28:49.449Z,1.36
2023-12-12T22:31:16.085Z,1.36
2023-12-12T22:33:42.789Z,1.34
2023-12-12T22:36:19.230Z,1.33
2023-12-12T22:38:46.732Z,1.31
2023-12-12T22:41:17.616Z,1.28
2023-12-12T22:43:44.323Z,1.25
2023-12-12T22:46:11.242Z,1.23
2023-12-12T22:48:38.190Z,1.21
2023-12-12T22:51:05.895Z,1.18
2023-12-12T22:53:32.834Z,1.18
2023-12-12T22:56:02.048Z,1.16
2023-12-12T22:58:28.617Z,1.14
2023-12-12T23:00:55.740Z,1.13
2023-12-12T23:03:25.579Z,1.11
2023-12-12T23:05:52.378Z,1.09
2023-12-12T23:08:19.189Z,1.08
2023-12-12T23:10:46.531Z,1.06
2023-12-12T23:13:13.557Z,1.04
2023-12-12T23:15:40.433Z,1.01
2023-12-12T23:18:18.284Z,0.98
2023-12-12T23:20:45.045Z,0.96
2023-12-12T23:23:11.913Z,0.93
2023-12-12T23:25:38.610Z,0.90
2023-12-12T23:28:05.441Z,0.90
2023-12-12T23:30:32.024Z,0.91
2023-12-12T23:32:58.671Z,0.93
2023-12-12T23:35:25.385Z,0.96
2023-12-12T23:37:52.086Z,1.01
2023-12-12T23:40:21.398Z,1.04
2023-12-12T23:42:48.279Z,1.05
2023-12-12T23:45:17.624Z,1.01
2023-12-12T23:47:49.058Z,0.99
2023-12-12T23:50:16.210Z,0.98
2023-12-12T23:52:43.774Z,0.98
2023-12-12T23:55:10.694Z,0.98
2023-12-12T23:57:37.465Z,1.00
